VRA weather

Juan Gualberto Gomez International Airport
Varadero, Matanzas, Cuba

Public forecast

Using degrees Celsius for public forecast. Weather courtesy of forecast.io.

Current aviation weather report (METAR) for Juan Gualberto Gomez International Airport

Retrieved 2019/10/22 09:50 UTC (51 minutes ago):

MUVR 220950Z 13003KT 9000 SKC 24/23 Q1016

Aviation forecast (TAF) for Juan Gualberto Gomez International Airport

Retrieved 2019/10/22 06:03 UTC (5 hours ago):

TAF MUVR 220500Z 2206/2306 VRB03KT 9000 SCT020 BECMG 2215/2217 10008KT TEMPO 2218/2224 5000 TSRA SCT018CB BKN020 BECMG 2302/2305 VRB03KT